sensor_id;sensor_type;location;lat;lon;timestamp;P1;durP1;ratioP1;P2;durP2;ratioP2
938;SDS011;456;53.584;9.968;2023-01-23T00:02:18;1.73;;;1.63;;
938;SDS011;456;53.584;9.968;2023-01-23T00:04:43;2.83;;;2.40;;
938;SDS011;456;53.584;9.968;2023-01-23T00:07:09;2.30;;;2.10;;
938;SDS011;456;53.584;9.968;2023-01-23T00:09:35;2.60;;;1.93;;
938;SDS011;456;53.584;9.968;2023-01-23T00:12:00;2.03;;;1.93;;
938;SDS011;456;53.584;9.968;2023-01-23T00:14:26;2.50;;;2.30;;
938;SDS011;456;53.584;9.968;2023-01-23T00:16:51;2.53;;;1.97;;
938;SDS011;456;53.584;9.968;2023-01-23T00:19:18;2.13;;;1.93;;
938;SDS011;456;53.584;9.968;2023-01-23T00:21:44;2.50;;;2.30;;
938;SDS011;456;53.584;9.968;2023-01-23T00:24:10;3.13;;;2.63;;
938;SDS011;456;53.584;9.968;2023-01-23T00:26:36;3.23;;;2.30;;
938;SDS011;456;53.584;9.968;2023-01-23T00:29:02;2.60;;;2.40;;
938;SDS011;456;53.584;9.968;2023-01-23T00:31:30;2.23;;;2.03;;
938;SDS011;456;53.584;9.968;2023-01-23T00:33:57;2.30;;;2.10;;
938;SDS011;456;53.584;9.968;2023-01-23T00:36:29;2.50;;;2.03;;
938;SDS011;456;53.584;9.968;2023-01-23T00:38:56;2.60;;;1.90;;
938;SDS011;456;53.584;9.968;2023-01-23T00:41:22;2.00;;;1.90;;
938;SDS011;456;53.584;9.968;2023-01-23T00:43:48;3.00;;;2.40;;
938;SDS011;456;53.584;9.968;2023-01-23T00:46:15;2.27;;;2.07;;
938;SDS011;456;53.584;9.968;2023-01-23T00:48:42;2.33;;;2.13;;
938;SDS011;456;53.584;9.968;2023-01-23T00:51:08;2.23;;;2.03;;
938;SDS011;456;53.584;9.968;2023-01-23T00:53:33;2.40;;;2.00;;
938;SDS011;456;53.584;9.968;2023-01-23T00:55:59;2.43;;;2.00;;
938;SDS011;456;53.584;9.968;2023-01-23T00:58:24;2.10;;;1.83;;
938;SDS011;456;53.584;9.968;2023-01-23T01:00:50;2.00;;;1.80;;
938;SDS011;456;53.584;9.968;2023-01-23T01:03:16;2.77;;;2.10;;
938;SDS011;456;53.584;9.968;2023-01-23T01:05:43;3.03;;;2.43;;
938;SDS011;456;53.584;9.968;2023-01-23T01:08:09;2.57;;;2.20;;
938;SDS011;456;53.584;9.968;2023-01-23T01:10:34;3.13;;;2.20;;
938;SDS011;456;53.584;9.968;2023-01-23T01:13:01;1.87;;;1.77;;
938;SDS011;456;53.584;9.968;2023-01-23T01:15:27;2.40;;;2.20;;
938;SDS011;456;53.584;9.968;2023-01-23T01:17:53;2.33;;;1.80;;
938;SDS011;456;53.584;9.968;2023-01-23T01:20:22;3.27;;;2.43;;
938;SDS011;456;53.584;9.968;2023-01-23T01:22:50;2.27;;;2.07;;
938;SDS011;456;53.584;9.968;2023-01-23T01:25:16;2.67;;;2.47;;
938;SDS011;456;53.584;9.968;2023-01-23T01:27:42;2.37;;;2.10;;
938;SDS011;456;53.584;9.968;2023-01-23T01:30:07;3.53;;;2.40;;
938;SDS011;456;53.584;9.968;2023-01-23T01:32:37;2.30;;;1.97;;
938;SDS011;456;53.584;9.968;2023-01-23T01:35:04;2.50;;;2.20;;
938;SDS011;456;53.584;9.968;2023-01-23T01:37:34;2.40;;;2.20;;
938;SDS011;456;53.584;9.968;2023-01-23T01:40:02;2.20;;;2.00;;
938;SDS011;456;53.584;9.968;2023-01-23T01:42:28;2.00;;;1.87;;
938;SDS011;456;53.584;9.968;2023-01-23T01:44:58;2.53;;;2.33;;
938;SDS011;456;53.584;9.968;2023-01-23T01:47:25;2.70;;;2.50;;
938;SDS011;456;53.584;9.968;2023-01-23T01:49:52;3.70;;;2.50;;
938;SDS011;456;53.584;9.968;2023-01-23T01:52:25;2.90;;;2.07;;
938;SDS011;456;53.584;9.968;2023-01-23T01:54:57;2.33;;;2.03;;
938;SDS011;456;53.584;9.968;2023-01-23T01:57:28;2.80;;;2.43;;
938;SDS011;456;53.584;9.968;2023-01-23T02:05:35;2.30;;;2.10;;
938;SDS011;456;53.584;9.968;2023-01-23T02:10:56;2.83;;;2.50;;
938;SDS011;456;53.584;9.968;2023-01-23T02:13:30;2.23;;;2.00;;
938;SDS011;456;53.584;9.968;2023-01-23T02:16:02;2.23;;;2.03;;
938;SDS011;456;53.584;9.968;2023-01-23T02:18:33;2.43;;;2.23;;
938;SDS011;456;53.584;9.968;2023-01-23T02:21:04;3.77;;;2.40;;
938;SDS011;456;53.584;9.968;2023-01-23T02:26:10;2.33;;;2.13;;
938;SDS011;456;53.584;9.968;2023-01-23T02:28:41;3.10;;;2.30;;
938;SDS011;456;53.584;9.968;2023-01-23T02:31:09;2.10;;;1.90;;
938;SDS011;456;53.584;9.968;2023-01-23T02:36:02;3.13;;;2.30;;
938;SDS011;456;53.584;9.968;2023-01-23T02:38:34;4.50;;;2.20;;
938;SDS011;456;53.584;9.968;2023-01-23T02:41:05;2.50;;;2.03;;
938;SDS011;456;53.584;9.968;2023-01-23T02:43:33;2.70;;;1.90;;
938;SDS011;456;53.584;9.968;2023-01-23T02:46:04;2.20;;;2.00;;
938;SDS011;456;53.584;9.968;2023-01-23T02:48:31;3.20;;;1.90;;
938;SDS011;456;53.584;9.968;2023-01-23T02:50:57;2.77;;;2.00;;
938;SDS011;456;53.584;9.968;2023-01-23T02:53:22;2.50;;;2.30;;
938;SDS011;456;53.584;9.968;2023-01-23T02:55:49;2.20;;;2.00;;
938;SDS011;456;53.584;9.968;2023-01-23T02:58:15;3.00;;;1.90;;
938;SDS011;456;53.584;9.968;2023-01-23T03:00:59;3.60;;;2.60;;
938;SDS011;456;53.584;9.968;2023-01-23T03:03:25;3.00;;;2.33;;
938;SDS011;456;53.584;9.968;2023-01-23T03:05:50;2.43;;;2.23;;
938;SDS011;456;53.584;9.968;2023-01-23T03:08:16;4.30;;;2.50;;
938;SDS011;456;53.584;9.968;2023-01-23T03:10:42;3.37;;;2.60;;
938;SDS011;456;53.584;9.968;2023-01-23T03:13:08;2.33;;;2.13;;
938;SDS011;456;53.584;9.968;2023-01-23T03:15:36;3.70;;;2.47;;
938;SDS011;456;53.584;9.968;2023-01-23T03:18:06;2.60;;;2.40;;
938;SDS011;456;53.584;9.968;2023-01-23T03:20:38;2.10;;;1.90;;
938;SDS011;456;53.584;9.968;2023-01-23T03:23:05;1.97;;;1.60;;
938;SDS011;456;53.584;9.968;2023-01-23T03:25:31;3.33;;;1.87;;
938;SDS011;456;53.584;9.968;2023-01-23T03:27:56;2.33;;;2.13;;
938;SDS011;456;53.584;9.968;2023-01-23T03:30:22;3.73;;;2.03;;
938;SDS011;456;53.584;9.968;2023-01-23T03:32:50;2.80;;;2.00;;
938;SDS011;456;53.584;9.968;2023-01-23T03:35:16;2.53;;;1.83;;
938;SDS011;456;53.584;9.968;2023-01-23T03:37:44;2.43;;;2.10;;
938;SDS011;456;53.584;9.968;2023-01-23T03:40:14;3.67;;;2.17;;
938;SDS011;456;53.584;9.968;2023-01-23T03:43:04;1.90;;;1.73;;
938;SDS011;456;53.584;9.968;2023-01-23T03:45:30;4.07;;;2.53;;
938;SDS011;456;53.584;9.968;2023-01-23T03:47:56;3.17;;;1.97;;
938;SDS011;456;53.584;9.968;2023-01-23T03:50:22;1.90;;;1.80;;
938;SDS011;456;53.584;9.968;2023-01-23T03:52:47;2.00;;;1.80;;
938;SDS011;456;53.584;9.968;2023-01-23T03:55:13;2.03;;;1.83;;
938;SDS011;456;53.584;9.968;2023-01-23T03:57:38;1.70;;;1.60;;
938;SDS011;456;53.584;9.968;2023-01-23T04:00:04;2.83;;;2.33;;
938;SDS011;456;53.584;9.968;2023-01-23T04:02:31;2.83;;;2.50;;
938;SDS011;456;53.584;9.968;2023-01-23T04:04:57;1.60;;;1.50;;
938;SDS011;456;53.584;9.968;2023-01-23T04:07:23;2.13;;;1.97;;
938;SDS011;456;53.584;9.968;2023-01-23T04:09:48;1.70;;;1.60;;
938;SDS011;456;53.584;9.968;2023-01-23T04:12:14;2.30;;;1.80;;
938;SDS011;456;53.584;9.968;2023-01-23T04:14:40;1.83;;;1.73;;
938;SDS011;456;53.584;9.968;2023-01-23T04:17:06;1.87;;;1.70;;
938;SDS011;456;53.584;9.968;2023-01-23T04:19:32;1.80;;;1.70;;
938;SDS011;456;53.584;9.968;2023-01-23T04:21:59;3.30;;;1.90;;
938;SDS011;456;53.584;9.968;2023-01-23T04:24:25;1.80;;;1.60;;
938;SDS011;456;53.584;9.968;2023-01-23T04:26:51;1.60;;;1.50;;
938;SDS011;456;53.584;9.968;2023-01-23T04:29:17;2.30;;;1.80;;
938;SDS011;456;53.584;9.968;2023-01-23T04:31:43;2.00;;;1.80;;
938;SDS011;456;53.584;9.968;2023-01-23T04:34:09;2.10;;;1.60;;
938;SDS011;456;53.584;9.968;2023-01-23T04:36:34;1.93;;;1.67;;
938;SDS011;456;53.584;9.968;2023-01-23T04:39:00;2.00;;;1.70;;
938;SDS011;456;53.584;9.968;2023-01-23T04:41:27;1.57;;;1.47;;
938;SDS011;456;53.584;9.968;2023-01-23T04:43:54;1.73;;;1.63;;
938;SDS011;456;53.584;9.968;2023-01-23T04:46:19;2.77;;;2.10;;
938;SDS011;456;53.584;9.968;2023-01-23T04:48:45;2.10;;;1.90;;
938;SDS011;456;53.584;9.968;2023-01-23T04:51:10;1.70;;;1.60;;
938;SDS011;456;53.584;9.968;2023-01-23T04:53:37;1.67;;;1.57;;
938;SDS011;456;53.584;9.968;2023-01-23T04:56:03;1.70;;;1.60;;
938;SDS011;456;53.584;9.968;2023-01-23T04:58:28;2.07;;;1.50;;
938;SDS011;456;53.584;9.968;2023-01-23T05:00:59;1.53;;;1.40;;
938;SDS011;456;53.584;9.968;2023-01-23T05:03:29;2.20;;;1.73;;
938;SDS011;456;53.584;9.968;2023-01-23T05:05:56;1.73;;;1.40;;
938;SDS011;456;53.584;9.968;2023-01-23T05:08:22;1.40;;;1.30;;
938;SDS011;456;53.584;9.968;2023-01-23T05:10:47;1.53;;;1.30;;
938;SDS011;456;53.584;9.968;2023-01-23T05:13:13;2.20;;;1.70;;
938;SDS011;456;53.584;9.968;2023-01-23T05:15:38;1.60;;;1.50;;
938;SDS011;456;53.584;9.968;2023-01-23T05:18:04;1.93;;;1.73;;
938;SDS011;456;53.584;9.968;2023-01-23T05:20:30;1.67;;;1.50;;
938;SDS011;456;53.584;9.968;2023-01-23T05:22:55;2.10;;;1.80;;
938;SDS011;456;53.584;9.968;2023-01-23T05:25:21;1.70;;;1.60;;
938;SDS011;456;53.584;9.968;2023-01-23T05:27:49;1.60;;;1.50;;
938;SDS011;456;53.584;9.968;2023-01-23T05:30:15;1.60;;;1.50;;
938;SDS011;456;53.584;9.968;2023-01-23T05:32:41;3.00;;;1.90;;
938;SDS011;456;53.584;9.968;2023-01-23T05:35:07;2.20;;;2.00;;
938;SDS011;456;53.584;9.968;2023-01-23T05:37:34;1.50;;;1.40;;
938;SDS011;456;53.584;9.968;2023-01-23T05:40:00;1.67;;;1.57;;
938;SDS011;456;53.584;9.968;2023-01-23T05:42:25;1.60;;;1.50;;
938;SDS011;456;53.584;9.968;2023-01-23T05:44:51;1.87;;;1.70;;
938;SDS011;456;53.584;9.968;2023-01-23T05:47:17;2.13;;;1.90;;
938;SDS011;456;53.584;9.968;2023-01-23T05:49:42;2.00;;;1.50;;
938;SDS011;456;53.584;9.968;2023-01-23T05:52:09;1.73;;;1.43;;
938;SDS011;456;53.584;9.968;2023-01-23T05:54:35;2.17;;;1.50;;
938;SDS011;456;53.584;9.968;2023-01-23T05:57:00;1.77;;;1.63;;
938;SDS011;456;53.584;9.968;2023-01-23T05:59:26;1.77;;;1.50;;
938;SDS011;456;53.584;9.968;2023-01-23T06:01:52;1.57;;;1.30;;
938;SDS011;456;53.584;9.968;2023-01-23T06:04:17;1.70;;;1.37;;
938;SDS011;456;53.584;9.968;2023-01-23T06:06:43;1.70;;;1.50;;
938;SDS011;456;53.584;9.968;2023-01-23T06:09:09;1.57;;;1.47;;
938;SDS011;456;53.584;9.968;2023-01-23T06:11:35;2.00;;;1.60;;
938;SDS011;456;53.584;9.968;2023-01-23T06:14:01;1.70;;;1.53;;
938;SDS011;456;53.584;9.968;2023-01-23T06:16:26;1.50;;;1.40;;
938;SDS011;456;53.584;9.968;2023-01-23T06:18:52;2.47;;;1.90;;
938;SDS011;456;53.584;9.968;2023-01-23T06:21:18;1.30;;;1.20;;
938;SDS011;456;53.584;9.968;2023-01-23T06:23:44;1.70;;;1.60;;
938;SDS011;456;53.584;9.968;2023-01-23T06:26:10;1.57;;;1.43;;
938;SDS011;456;53.584;9.968;2023-01-23T06:28:36;2.97;;;1.70;;
938;SDS011;456;53.584;9.968;2023-01-23T06:31:02;1.43;;;1.30;;
938;SDS011;456;53.584;9.968;2023-01-23T06:33:28;2.80;;;1.40;;
938;SDS011;456;53.584;9.968;2023-01-23T06:36:02;2.47;;;1.40;;
938;SDS011;456;53.584;9.968;2023-01-23T06:38:30;1.40;;;1.23;;
938;SDS011;456;53.584;9.968;2023-01-23T06:40:56;1.70;;;1.40;;
938;SDS011;456;53.584;9.968;2023-01-23T06:43:22;2.37;;;1.90;;
938;SDS011;456;53.584;9.968;2023-01-23T06:45:48;3.30;;;1.20;;
938;SDS011;456;53.584;9.968;2023-01-23T06:48:14;1.97;;;1.50;;
938;SDS011;456;53.584;9.968;2023-01-23T06:50:40;1.60;;;1.40;;
938;SDS011;456;53.584;9.968;2023-01-23T06:53:07;2.10;;;1.60;;
938;SDS011;456;53.584;9.968;2023-01-23T06:55:36;1.73;;;1.47;;
938;SDS011;456;53.584;9.968;2023-01-23T06:58:01;1.60;;;1.50;;
938;SDS011;456;53.584;9.968;2023-01-23T07:00:27;1.40;;;1.30;;
938;SDS011;456;53.584;9.968;2023-01-23T07:02:53;1.83;;;1.73;;
938;SDS011;456;53.584;9.968;2023-01-23T07:05:22;2.53;;;1.57;;
938;SDS011;456;53.584;9.968;2023-01-23T07:07:49;1.30;;;1.20;;
938;SDS011;456;53.584;9.968;2023-01-23T07:10:15;1.43;;;1.33;;
938;SDS011;456;53.584;9.968;2023-01-23T07:12:41;1.37;;;1.27;;
938;SDS011;456;53.584;9.968;2023-01-23T07:15:06;1.23;;;1.13;;
938;SDS011;456;53.584;9.968;2023-01-23T07:17:32;1.60;;;1.50;;
938;SDS011;456;53.584;9.968;2023-01-23T07:19:58;1.63;;;1.23;;
938;SDS011;456;53.584;9.968;2023-01-23T07:22:23;2.10;;;1.90;;
938;SDS011;456;53.584;9.968;2023-01-23T07:24:49;2.10;;;1.53;;
938;SDS011;456;53.584;9.968;2023-01-23T07:27:15;2.13;;;1.87;;
938;SDS011;456;53.584;9.968;2023-01-23T07:29:41;1.40;;;1.30;;
938;SDS011;456;53.584;9.968;2023-01-23T07:32:07;1.70;;;1.60;;
938;SDS011;456;53.584;9.968;2023-01-23T07:34:32;2.07;;;1.87;;
938;SDS011;456;53.584;9.968;2023-01-23T07:36:58;2.57;;;1.70;;
938;SDS011;456;53.584;9.968;2023-01-23T07:39:24;2.40;;;2.07;;
938;SDS011;456;53.584;9.968;2023-01-23T07:41:50;2.43;;;2.23;;
938;SDS011;456;53.584;9.968;2023-01-23T07:44:16;3.50;;;2.43;;
938;SDS011;456;53.584;9.968;2023-01-23T07:46:44;1.60;;;1.50;;
938;SDS011;456;53.584;9.968;2023-01-23T07:49:11;2.53;;;2.10;;
938;SDS011;456;53.584;9.968;2023-01-23T07:51:37;3.90;;;2.20;;
938;SDS011;456;53.584;9.968;2023-01-23T07:54:02;2.67;;;2.10;;
938;SDS011;456;53.584;9.968;2023-01-23T07:56:28;2.83;;;1.70;;
938;SDS011;456;53.584;9.968;2023-01-23T07:58:54;2.23;;;1.97;;
938;SDS011;456;53.584;9.968;2023-01-23T08:01:19;2.20;;;1.60;;
938;SDS011;456;53.584;9.968;2023-01-23T08:03:45;2.50;;;2.30;;
938;SDS011;456;53.584;9.968;2023-01-23T08:06:12;1.97;;;1.77;;
938;SDS011;456;53.584;9.968;2023-01-23T08:08:38;6.03;;;1.93;;
938;SDS011;456;53.584;9.968;2023-01-23T08:11:07;1.80;;;1.70;;
938;SDS011;456;53.584;9.968;2023-01-23T08:13:35;1.97;;;1.87;;
938;SDS011;456;53.584;9.968;2023-01-23T08:16:01;3.00;;;1.70;;
938;SDS011;456;53.584;9.968;2023-01-23T08:18:27;1.90;;;1.80;;
938;SDS011;456;53.584;9.968;2023-01-23T08:20:54;2.80;;;1.90;;
938;SDS011;456;53.584;9.968;2023-01-23T08:23:27;1.90;;;1.80;;
938;SDS011;456;53.584;9.968;2023-01-23T08:25:54;4.83;;;2.20;;
938;SDS011;456;53.584;9.968;2023-01-23T08:28:21;2.10;;;1.97;;
938;SDS011;456;53.584;9.968;2023-01-23T08:30:48;2.60;;;1.70;;
938;SDS011;456;53.584;9.968;2023-01-23T08:33:14;4.00;;;2.20;;
938;SDS011;456;53.584;9.968;2023-01-23T08:35:47;2.53;;;2.07;;
938;SDS011;456;53.584;9.968;2023-01-23T08:38:16;1.80;;;1.70;;
938;SDS011;456;53.584;9.968;2023-01-23T08:40:45;2.40;;;2.20;;
938;SDS011;456;53.584;9.968;2023-01-23T08:43:14;2.40;;;2.00;;
938;SDS011;456;53.584;9.968;2023-01-23T08:45:46;1.80;;;1.70;;
938;SDS011;456;53.584;9.968;2023-01-23T08:48:13;1.73;;;1.63;;
938;SDS011;456;53.584;9.968;2023-01-23T08:50:39;2.27;;;2.07;;
938;SDS011;456;53.584;9.968;2023-01-23T08:53:04;1.93;;;1.60;;
938;SDS011;456;53.584;9.968;2023-01-23T08:55:30;1.93;;;1.83;;
938;SDS011;456;53.584;9.968;2023-01-23T08:57:57;2.63;;;2.20;;
938;SDS011;456;53.584;9.968;2023-01-23T09:00:23;2.73;;;2.00;;
938;SDS011;456;53.584;9.968;2023-01-23T09:02:49;2.40;;;2.00;;
938;SDS011;456;53.584;9.968;2023-01-23T09:05:15;2.93;;;2.30;;
938;SDS011;456;53.584;9.968;2023-01-23T09:07:41;3.73;;;2.00;;
938;SDS011;456;53.584;9.968;2023-01-23T09:10:07;2.10;;;1.70;;
938;SDS011;456;53.584;9.968;2023-01-23T09:12:33;3.70;;;2.10;;
938;SDS011;456;53.584;9.968;2023-01-23T09:14:59;1.60;;;1.50;;
938;SDS011;456;53.584;9.968;2023-01-23T09:17:25;2.83;;;2.03;;
938;SDS011;456;53.584;9.968;2023-01-23T09:19:51;1.70;;;1.60;;
938;SDS011;456;53.584;9.968;2023-01-23T09:22:18;1.70;;;1.60;;
938;SDS011;456;53.584;9.968;2023-01-23T09:24:44;2.10;;;2.00;;
938;SDS011;456;53.584;9.968;2023-01-23T09:27:09;2.70;;;2.50;;
938;SDS011;456;53.584;9.968;2023-01-23T09:29:35;2.33;;;2.13;;
938;SDS011;456;53.584;9.968;2023-01-23T09:32:01;2.60;;;2.40;;
938;SDS011;456;53.584;9.968;2023-01-23T09:34:27;2.40;;;2.20;;
938;SDS011;456;53.584;9.968;2023-01-23T09:36:53;2.27;;;1.97;;
938;SDS011;456;53.584;9.968;2023-01-23T09:39:19;4.90;;;2.90;;
938;SDS011;456;53.584;9.968;2023-01-23T09:41:45;2.40;;;2.20;;
938;SDS011;456;53.584;9.968;2023-01-23T09:47:12;3.60;;;2.53;;
938;SDS011;456;53.584;9.968;2023-01-23T09:54:57;3.10;;;2.70;;
938;SDS011;456;53.584;9.968;2023-01-23T09:57:43;3.30;;;3.00;;
938;SDS011;456;53.584;9.968;2023-01-23T10:00:23;3.13;;;2.83;;
938;SDS011;456;53.584;9.968;2023-01-23T10:02:49;3.30;;;3.00;;
938;SDS011;456;53.584;9.968;2023-01-23T10:05:17;3.37;;;2.40;;
938;SDS011;456;53.584;9.968;2023-01-23T10:13:18;3.17;;;2.87;;
938;SDS011;456;53.584;9.968;2023-01-23T10:16:12;4.03;;;2.53;;
938;SDS011;456;53.584;9.968;2023-01-23T10:26:58;3.27;;;2.97;;
938;SDS011;456;53.584;9.968;2023-01-23T10:29:35;3.27;;;3.00;;
938;SDS011;456;53.584;9.968;2023-01-23T10:32:15;3.10;;;2.90;;
938;SDS011;456;53.584;9.968;2023-01-23T10:34:51;2.70;;;2.50;;
938;SDS011;456;53.584;9.968;2023-01-23T10:37:44;2.90;;;2.70;;
938;SDS011;456;53.584;9.968;2023-01-23T10:40:26;2.90;;;2.70;;
938;SDS011;456;53.584;9.968;2023-01-23T10:43:20;2.77;;;2.57;;
938;SDS011;456;53.584;9.968;2023-01-23T10:45:46;2.93;;;2.63;;
938;SDS011;456;53.584;9.968;2023-01-23T10:50:58;4.00;;;3.00;;
938;SDS011;456;53.584;9.968;2023-01-23T10:53:24;3.77;;;3.47;;
938;SDS011;456;53.584;9.968;2023-01-23T10:55:51;3.23;;;3.00;;
938;SDS011;456;53.584;9.968;2023-01-23T11:00:56;3.27;;;2.97;;
938;SDS011;456;53.584;9.968;2023-01-23T11:03:27;3.50;;;3.20;;
938;SDS011;456;53.584;9.968;2023-01-23T11:08:36;3.30;;;2.93;;
938;SDS011;456;53.584;9.968;2023-01-23T11:13:47;4.17;;;3.77;;
938;SDS011;456;53.584;9.968;2023-01-23T11:16:16;3.30;;;3.10;;
938;SDS011;456;53.584;9.968;2023-01-23T11:18:52;3.90;;;3.60;;
938;SDS011;456;53.584;9.968;2023-01-23T11:21:34;4.07;;;3.67;;
938;SDS011;456;53.584;9.968;2023-01-23T11:27:03;4.03;;;3.53;;
938;SDS011;456;53.584;9.968;2023-01-23T11:29:30;4.60;;;4.20;;
938;SDS011;456;53.584;9.968;2023-01-23T11:32:27;4.20;;;3.80;;
938;SDS011;456;53.584;9.968;2023-01-23T11:35:13;3.70;;;3.40;;
938;SDS011;456;53.584;9.968;2023-01-23T11:37:43;3.70;;;3.40;;
938;SDS011;456;53.584;9.968;2023-01-23T11:42:42;4.20;;;3.90;;
938;SDS011;456;53.584;9.968;2023-01-23T11:45:12;4.30;;;3.90;;
938;SDS011;456;53.584;9.968;2023-01-23T11:51:06;3.57;;;3.30;;
938;SDS011;456;53.584;9.968;2023-01-23T11:53:33;3.97;;;3.67;;
938;SDS011;456;53.584;9.968;2023-01-23T12:01:43;4.50;;;4.07;;
938;SDS011;456;53.584;9.968;2023-01-23T12:09:37;4.27;;;3.93;;
938;SDS011;456;53.584;9.968;2023-01-23T12:18:06;5.27;;;4.87;;
938;SDS011;456;53.584;9.968;2023-01-23T12:21:04;4.10;;;3.80;;
938;SDS011;456;53.584;9.968;2023-01-23T12:26:33;4.80;;;4.40;;
938;SDS011;456;53.584;9.968;2023-01-23T12:29:08;5.07;;;4.57;;
938;SDS011;456;53.584;9.968;2023-01-23T12:34:43;5.37;;;4.90;;
938;SDS011;456;53.584;9.968;2023-01-23T12:40:24;4.20;;;3.90;;
938;SDS011;456;53.584;9.968;2023-01-23T12:45:34;4.27;;;3.97;;
938;SDS011;456;53.584;9.968;2023-01-23T12:50:55;4.77;;;4.37;;
938;SDS011;456;53.584;9.968;2023-01-23T12:53:29;5.17;;;4.77;;
938;SDS011;456;53.584;9.968;2023-01-23T12:56:09;5.10;;;4.67;;
938;SDS011;456;53.584;9.968;2023-01-23T13:02:17;4.90;;;4.50;;
938;SDS011;456;53.584;9.968;2023-01-23T13:07:50;5.30;;;4.80;;
938;SDS011;456;53.584;9.968;2023-01-23T13:13:14;5.70;;;4.47;;
938;SDS011;456;53.584;9.968;2023-01-23T13:15:41;4.80;;;4.30;;
938;SDS011;456;53.584;9.968;2023-01-23T13:18:28;5.57;;;4.97;;
938;SDS011;456;53.584;9.968;2023-01-23T13:20:55;4.97;;;4.57;;
938;SDS011;456;53.584;9.968;2023-01-23T13:23:42;5.57;;;5.07;;
938;SDS011;456;53.584;9.968;2023-01-23T13:26:26;5.27;;;4.80;;
938;SDS011;456;53.584;9.968;2023-01-23T13:28:55;5.10;;;4.70;;
938;SDS011;456;53.584;9.968;2023-01-23T13:31:23;4.93;;;4.53;;
938;SDS011;456;53.584;9.968;2023-01-23T13:34:01;5.00;;;4.60;;
938;SDS011;456;53.584;9.968;2023-01-23T13:36:53;5.13;;;4.60;;
938;SDS011;456;53.584;9.968;2023-01-23T13:39:34;5.10;;;4.60;;
938;SDS011;456;53.584;9.968;2023-01-23T13:45:12;5.03;;;4.50;;
938;SDS011;456;53.584;9.968;2023-01-23T13:47:55;5.07;;;4.67;;
938;SDS011;456;53.584;9.968;2023-01-23T13:51:18;5.20;;;4.80;;
938;SDS011;456;53.584;9.968;2023-01-23T13:53:46;5.40;;;5.00;;
938;SDS011;456;53.584;9.968;2023-01-23T13:56:33;5.73;;;5.23;;
938;SDS011;456;53.584;9.968;2023-01-23T13:59:37;5.73;;;5.23;;
938;SDS011;456;53.584;9.968;2023-01-23T14:05:22;5.00;;;4.60;;
938;SDS011;456;53.584;9.968;2023-01-23T14:07:58;4.43;;;4.07;;
938;SDS011;456;53.584;9.968;2023-01-23T14:10:30;4.83;;;4.43;;
938;SDS011;456;53.584;9.968;2023-01-23T14:13:04;4.73;;;4.33;;
938;SDS011;456;53.584;9.968;2023-01-23T14:15:36;5.57;;;5.07;;
938;SDS011;456;53.584;9.968;2023-01-23T14:21:17;5.63;;;5.03;;
938;SDS011;456;53.584;9.968;2023-01-23T14:23:50;5.43;;;5.03;;
938;SDS011;456;53.584;9.968;2023-01-23T14:26:18;5.60;;;5.10;;
938;SDS011;456;53.584;9.968;2023-01-23T14:28:52;6.27;;;5.67;;
938;SDS011;456;53.584;9.968;2023-01-23T14:31:28;5.50;;;5.00;;
938;SDS011;456;53.584;9.968;2023-01-23T14:34:02;5.60;;;5.13;;
938;SDS011;456;53.584;9.968;2023-01-23T14:36:31;6.97;;;5.63;;
938;SDS011;456;53.584;9.968;2023-01-23T14:38:58;5.53;;;4.80;;
938;SDS011;456;53.584;9.968;2023-01-23T14:41:28;5.40;;;4.90;;
938;SDS011;456;53.584;9.968;2023-01-23T14:43:57;5.63;;;5.13;;
938;SDS011;456;53.584;9.968;2023-01-23T14:46:30;5.73;;;5.23;;
938;SDS011;456;53.584;9.968;2023-01-23T14:49:07;4.93;;;4.53;;
938;SDS011;456;53.584;9.968;2023-01-23T14:51:34;5.57;;;5.07;;
938;SDS011;456;53.584;9.968;2023-01-23T14:54:01;5.40;;;4.90;;
938;SDS011;456;53.584;9.968;2023-01-23T14:56:33;5.37;;;4.87;;
938;SDS011;456;53.584;9.968;2023-01-23T14:59:02;5.77;;;5.27;;
938;SDS011;456;53.584;9.968;2023-01-23T15:01:30;5.60;;;5.03;;
938;SDS011;456;53.584;9.968;2023-01-23T15:04:00;6.13;;;5.63;;
938;SDS011;456;53.584;9.968;2023-01-23T15:06:32;6.90;;;6.20;;
938;SDS011;456;53.584;9.968;2023-01-23T15:09:11;6.40;;;5.80;;
938;SDS011;456;53.584;9.968;2023-01-23T15:11:41;5.13;;;4.70;;
938;SDS011;456;53.584;9.968;2023-01-23T15:14:19;5.50;;;5.00;;
938;SDS011;456;53.584;9.968;2023-01-23T15:16:59;7.27;;;5.10;;
938;SDS011;456;53.584;9.968;2023-01-23T15:19:27;5.50;;;5.10;;
938;SDS011;456;53.584;9.968;2023-01-23T15:24:31;5.57;;;5.07;;
938;SDS011;456;53.584;9.968;2023-01-23T15:26:57;5.20;;;4.70;;
938;SDS011;456;53.584;9.968;2023-01-23T15:29:27;6.00;;;5.50;;
938;SDS011;456;53.584;9.968;2023-01-23T15:31:53;6.27;;;5.07;;
938;SDS011;456;53.584;9.968;2023-01-23T15:37:14;5.30;;;4.90;;
938;SDS011;456;53.584;9.968;2023-01-23T15:39:49;5.90;;;4.97;;
938;SDS011;456;53.584;9.968;2023-01-23T15:44:41;5.53;;;5.13;;
938;SDS011;456;53.584;9.968;2023-01-23T15:47:07;6.10;;;5.60;;
938;SDS011;456;53.584;9.968;2023-01-23T15:49:34;5.47;;;4.97;;
938;SDS011;456;53.584;9.968;2023-01-23T15:54:43;6.53;;;5.93;;
938;SDS011;456;53.584;9.968;2023-01-23T15:57:10;5.87;;;5.37;;
938;SDS011;456;53.584;9.968;2023-01-23T15:59:36;6.13;;;5.00;;
938;SDS011;456;53.584;9.968;2023-01-23T16:02:03;5.60;;;5.10;;
938;SDS011;456;53.584;9.968;2023-01-23T16:04:30;5.50;;;5.00;;
938;SDS011;456;53.584;9.968;2023-01-23T16:06:56;5.70;;;5.20;;
938;SDS011;456;53.584;9.968;2023-01-23T16:09:27;6.10;;;5.50;;
938;SDS011;456;53.584;9.968;2023-01-23T16:11:54;5.90;;;5.30;;
938;SDS011;456;53.584;9.968;2023-01-23T16:14:21;5.90;;;5.40;;
938;SDS011;456;53.584;9.968;2023-01-23T16:16:46;5.30;;;4.80;;
938;SDS011;456;53.584;9.968;2023-01-23T16:19:12;6.43;;;5.17;;
938;SDS011;456;53.584;9.968;2023-01-23T16:21:38;6.20;;;5.70;;
938;SDS011;456;53.584;9.968;2023-01-23T16:27:29;5.60;;;5.10;;
938;SDS011;456;53.584;9.968;2023-01-23T16:33:18;6.30;;;5.70;;
938;SDS011;456;53.584;9.968;2023-01-23T16:35:45;5.70;;;5.20;;
938;SDS011;456;53.584;9.968;2023-01-23T16:38:19;5.43;;;4.93;;
938;SDS011;456;53.584;9.968;2023-01-23T16:40:50;5.77;;;5.23;;
938;SDS011;456;53.584;9.968;2023-01-23T16:43:17;6.10;;;5.50;;
938;SDS011;456;53.584;9.968;2023-01-23T16:45:43;6.17;;;5.67;;
938;SDS011;456;53.584;9.968;2023-01-23T16:48:08;5.93;;;5.43;;
938;SDS011;456;53.584;9.968;2023-01-23T16:50:36;5.53;;;5.03;;
938;SDS011;456;53.584;9.968;2023-01-23T16:53:06;5.60;;;5.20;;
938;SDS011;456;53.584;9.968;2023-01-23T16:55:37;5.63;;;5.17;;
938;SDS011;456;53.584;9.968;2023-01-23T16:58:04;5.80;;;5.30;;
938;SDS011;456;53.584;9.968;2023-01-23T17:00:31;5.53;;;5.13;;
938;SDS011;456;53.584;9.968;2023-01-23T17:02:59;6.17;;;4.93;;
938;SDS011;456;53.584;9.968;2023-01-23T17:05:28;5.60;;;5.10;;
938;SDS011;456;53.584;9.968;2023-01-23T17:07:54;5.70;;;5.30;;
938;SDS011;456;53.584;9.968;2023-01-23T17:10:20;6.20;;;5.70;;
938;SDS011;456;53.584;9.968;2023-01-23T17:12:48;6.47;;;5.90;;
938;SDS011;456;53.584;9.968;2023-01-23T17:17:51;4.67;;;4.33;;
938;SDS011;456;53.584;9.968;2023-01-23T17:20:19;5.70;;;5.20;;
938;SDS011;456;53.584;9.968;2023-01-23T17:22:45;5.77;;;5.27;;
938;SDS011;456;53.584;9.968;2023-01-23T17:25:16;5.73;;;5.23;;
938;SDS011;456;53.584;9.968;2023-01-23T17:27:41;5.50;;;5.00;;
938;SDS011;456;53.584;9.968;2023-01-23T17:30:08;5.83;;;5.33;;
938;SDS011;456;53.584;9.968;2023-01-23T17:32:39;5.63;;;5.13;;
938;SDS011;456;53.584;9.968;2023-01-23T17:35:06;5.63;;;5.13;;
938;SDS011;456;53.584;9.968;2023-01-23T17:37:39;6.27;;;5.77;;
938;SDS011;456;53.584;9.968;2023-01-23T17:40:05;6.13;;;5.53;;
938;SDS011;456;53.584;9.968;2023-01-23T17:42:34;5.33;;;4.93;;
938;SDS011;456;53.584;9.968;2023-01-23T17:45:00;5.30;;;4.80;;
938;SDS011;456;53.584;9.968;2023-01-23T17:47:26;5.90;;;5.40;;
938;SDS011;456;53.584;9.968;2023-01-23T17:49:52;5.40;;;4.90;;
938;SDS011;456;53.584;9.968;2023-01-23T17:52:21;6.00;;;5.50;;
938;SDS011;456;53.584;9.968;2023-01-23T17:54:48;5.83;;;5.33;;
938;SDS011;456;53.584;9.968;2023-01-23T17:57:14;6.20;;;5.60;;
938;SDS011;456;53.584;9.968;2023-01-23T17:59:39;5.70;;;5.20;;
938;SDS011;456;53.584;9.968;2023-01-23T18:02:15;5.97;;;5.47;;